Time;durP1;ratioP1;P1;durP2;ratioP2;P2;SDS_P1;SDS_P2;PMS_P1;PMS_P2;Temp;Humidity;BMP_temperature;BMP_pressure;BME280_temperature;BME280_humidity;BME280_pressure;Samples;Min_cycle;Max_cycle;Signal;HPM_P1;HPM_P2
2021/07/25 00:00:05;;;;;;;7.15;3.80;;;;;;;23.12;41.69;99584.25;5051572;28;20033;-75
2021/07/25 00:02:32;;;;;;;7.70;4.03;;;;;;;22.90;41.88;99543.13;5051874;28;20020;-77
2021/07/25 00:04:58;;;;;;;5.10;3.55;;;;;;;23.29;41.99;99611.84;5051746;28;20029;-75
2021/07/25 00:07:23;;;;;;;4.82;3.70;;;;;;;23.27;42.07;99607.78;5050361;28;20093;-76
2021/07/25 00:09:48;;;;;;;8.07;3.85;;;;;;;23.21;41.95;99606.13;5052240;28;20139;-76
2021/07/25 00:12:14;;;;;;;5.85;4.10;;;;;;;22.98;42.02;99572.25;5051193;28;20028;-75
2021/07/25 00:14:39;;;;;;;6.57;3.67;;;;;;;23.08;42.16;99588.53;5051596;28;20025;-76
2021/07/25 00:17:05;;;;;;;6.90;3.47;;;;;;;23.00;42.28;99586.28;5051571;28;20502;-76
2021/07/25 00:19:35;;;;;;;5.93;3.85;;;;;;;22.07;42.32;99440.44;5051589;28;20045;-76
2021/07/25 00:22:01;;;;;;;7.85;3.75;;;;;;;22.61;42.42;99521.88;5051429;28;20076;-76
2021/07/25 00:24:31;;;;;;;5.75;3.72;;;;;;;23.11;42.36;99612.25;5051653;28;20421;-75
2021/07/25 00:26:59;;;;;;;4.43;3.58;;;;;;;22.68;42.42;99544.00;5050145;28;20498;-75
2021/07/25 00:29:25;;;;;;;4.72;3.92;;;;;;;22.99;42.47;99592.72;5051459;28;20021;-77
2021/07/25 00:31:51;;;;;;;7.38;4.03;;;;;;;22.66;42.49;99553.41;5051535;28;20025;-75
2021/07/25 00:34:16;;;;;;;5.78;3.70;;;;;;;22.93;42.81;99599.16;5051326;28;20481;-75
2021/07/25 00:36:42;;;;;;;7.38;4.03;;;;;;;22.80;42.94;99608.47;5049959;28;20029;-74
2021/07/25 00:39:10;;;;;;;6.38;3.63;;;;;;;22.04;43.12;99511.66;5051162;28;20108;-75
2021/07/25 00:41:36;;;;;;;5.68;3.72;;;;;;;21.93;43.17;99482.22;5051339;28;20406;-75
2021/07/25 00:44:02;;;;;;;6.35;3.72;;;;;;;22.09;43.15;99517.09;5051242;28;20032;-74
2021/07/25 00:46:28;;;;;;;7.25;3.70;;;;;;;22.65;43.24;99614.50;5051299;28;20025;-75
2021/07/25 00:48:55;;;;;;;6.13;4.07;;;;;;;21.99;43.59;99533.09;5051273;28;20017;-76
2021/07/25 00:51:23;;;;;;;5.85;3.60;;;;;;;22.40;43.83;99608.88;5051280;28;20053;-74
2021/07/25 00:53:49;;;;;;;5.22;3.90;;;;;;;21.23;43.79;99422.84;5050907;28;20017;-75
2021/07/25 00:56:15;;;;;;;5.68;4.15;;;;;;;22.35;43.75;99604.25;5051041;28;20029;-75
2021/07/25 00:58:42;;;;;;;7.00;4.00;;;;;;;22.37;44.00;99620.16;5051041;28;20087;-75
2021/07/25 01:01:11;;;;;;;4.72;3.65;;;;;;;22.34;44.04;99615.28;5051162;28;20547;-75
2021/07/25 01:03:51;;;;;;;6.68;3.78;;;;;;;21.24;44.12;99447.84;5051120;28;20049;-76
2021/07/25 01:06:23;;;;;;;8.60;4.40;;;;;;;22.22;44.13;99614.56;5051151;28;20028;-76
2021/07/25 01:08:58;;;;;;;7.93;3.90;;;;;;;22.12;44.82;99610.69;5051045;28;20021;-74
2021/07/25 01:11:40;;;;;;;5.32;3.50;;;;;;;22.08;44.63;99616.84;5049779;28;20025;-75
2021/07/25 01:14:06;;;;;;;;;;;;;;;21.83;45.08;99604.69;5051480;28;20052;-75
2021/07/25 01:16:32;;;;;;;6.38;3.90;;;;;;;21.99;44.63;99612.94;5050920;28;20360;-75
2021/07/25 01:18:58;;;;;;;7.25;4.40;;;;;;;22.03;44.47;99609.53;5050972;28;20013;-76
2021/07/25 01:21:23;;;;;;;7.20;3.95;;;;;;;21.93;44.54;99590.56;5050871;28;20056;-76
2021/07/25 01:23:50;;;;;;;4.93;3.60;;;;;;;21.91;44.68;99597.25;5050983;28;20039;-76
2021/07/25 01:26:26;;;;;;;4.38;3.67;;;;;;;21.97;44.90;99610.50;5052849;28;20029;-74
2021/07/25 01:28:55;;;;;;;6.07;3.83;;;;;;;21.97;44.77;99602.44;5053336;28;20045;-75
2021/07/25 01:31:26;;;;;;;5.75;4.18;;;;;;;21.86;44.85;99587.25;5054493;28;20017;-76
2021/07/25 01:33:53;;;;;;;8.10;4.20;;;;;;;21.91;44.91;99600.75;5054576;28;20025;-75
2021/07/25 01:36:19;;;;;;;5.93;3.40;;;;;;;21.85;44.97;99615.19;5054600;28;20033;-76
2021/07/25 01:38:44;;;;;;;7.10;3.75;;;;;;;21.88;45.06;99609.31;5054482;28;20578;-74
2021/07/25 01:41:12;;;;;;;5.97;3.58;;;;;;;21.94;44.92;99605.63;5054492;28;20440;-75
2021/07/25 01:43:42;;;;;;;6.22;4.18;;;;;;;21.95;44.93;99607.25;5054371;28;20029;-76
2021/07/25 01:46:08;;;;;;;5.22;3.83;;;;;;;21.97;44.90;99613.19;5052955;28;20021;-75
2021/07/25 01:48:36;;;;;;;8.35;3.80;;;;;;;21.95;44.84;99601.88;5053958;28;20035;-75
2021/07/25 01:51:01;;;;;;;4.07;3.67;;;;;;;21.87;44.97;99607.69;5054089;28;20054;-76
2021/07/25 01:53:27;;;;;;;5.28;3.55;;;;;;;21.15;45.14;99503.81;5053925;28;20568;-76
2021/07/25 01:55:52;;;;;;;5.47;3.72;;;;;;;21.70;45.20;99601.56;5053991;28;20025;-76
2021/07/25 01:58:17;;;;;;;5.28;3.33;;;;;;;21.62;45.25;99596.63;5054032;28;20096;-75
2021/07/25 02:00:43;;;;;;;6.25;3.72;;;;;;;21.70;45.43;99625.75;5054065;28;20440;-75
2021/07/25 02:03:08;;;;;;;7.90;3.83;;;;;;;21.07;45.55;99523.03;5054059;28;20032;-76
2021/07/25 02:05:37;;;;;;;6.00;4.20;;;;;;;21.02;45.62;99522.97;5052667;28;20074;-74
2021/07/25 02:08:04;;;;;;;5.40;3.53;;;;;;;21.08;45.73;99537.25;5053643;28;20021;-75
2021/07/25 02:10:29;;;;;;;11.27;4.43;;;;;;;21.55;45.78;99615.56;5053606;28;20027;-76
2021/07/25 02:12:55;;;;;;;4.28;3.83;;;;;;;21.55;45.69;99618.25;5053701;28;20021;-76
2021/07/25 02:15:21;;;;;;;6.78;3.88;;;;;;;21.19;45.95;99561.31;5053935;28;20025;-75
2021/07/25 02:17:46;;;;;;;4.65;3.70;;;;;;;21.14;45.96;99558.56;5053846;28;20021;-75
2021/07/25 02:20:12;;;;;;;8.63;3.80;;;;;;;21.40;45.72;99602.75;5053755;28;20020;-75
2021/07/25 02:22:37;;;;;;;7.85;3.90;;;;;;;21.41;45.90;99600.88;5053609;28;20021;-74
2021/07/25 02:25:03;;;;;;;8.02;4.53;;;;;;;21.42;45.90;99619.44;5053612;28;20079;-74
2021/07/25 02:27:28;;;;;;;5.93;4.18;;;;;;;20.72;46.00;99515.22;5053375;28;20025;-76
2021/07/25 02:29:54;;;;;;;5.70;3.65;;;;;;;20.38;45.96;99451.88;5052270;28;20103;-76
2021/07/25 02:32:19;;;;;;;4.53;3.67;;;;;;;21.40;46.02;99620.72;5053735;28;20021;-74
2021/07/25 02:34:45;;;;;;;5.28;4.20;;;;;;;20.74;46.01;99549.88;5053242;28;20099;-76
2021/07/25 02:37:11;;;;;;;4.78;3.97;;;;;;;21.32;46.34;99624.66;5053051;28;20025;-76
2021/07/25 02:39:38;;;;;;;7.22;4.38;;;;;;;21.00;46.33;99581.44;5052936;28;20029;-75
2021/07/25 02:42:04;;;;;;;6.88;3.78;;;;;;;20.67;46.62;99525.88;5053078;28;20033;-76
2021/07/25 02:44:29;;;;;;;5.25;3.70;;;;;;;21.34;46.27;99625.22;5053399;28;20024;-75
2021/07/25 02:46:54;;;;;;;7.10;4.40;;;;;;;21.16;46.39;99614.72;5053205;28;20035;-75
2021/07/25 02:49:20;;;;;;;4.82;4.03;;;;;;;21.29;46.49;99629.69;5053044;28;20027;-76
2021/07/25 02:51:45;;;;;;;6.30;4.15;;;;;;;21.28;46.47;99625.38;5053312;28;20448;-75
2021/07/25 02:54:11;;;;;;;6.40;3.92;;;;;;;21.26;46.53;99652.50;5053068;28;20025;-74
2021/07/25 02:56:37;;;;;;;7.10;4.15;;;;;;;21.25;46.46;99632.88;5052927;28;20025;-75
2021/07/25 02:59:02;;;;;;;9.25;4.13;;;;;;;20.10;46.49;99458.13;5052798;28;20021;-76
2021/07/25 03:01:28;;;;;;;5.88;3.80;;;;;;;21.16;46.56;99620.88;5052950;28;20021;-75
2021/07/25 03:03:53;;;;;;;4.53;3.80;;;;;;;21.15;46.50;99619.25;5052933;28;20021;-76
2021/07/25 03:06:18;;;;;;;5.18;3.72;;;;;;;21.08;46.56;99607.06;5051847;28;20486;-74
2021/07/25 03:08:44;;;;;;;9.07;4.18;;;;;;;20.79;46.35;99556.13;5052948;28;20017;-76
2021/07/25 03:11:10;;;;;;;5.55;3.72;;;;;;;21.21;46.43;99625.53;5052814;28;20024;-76
2021/07/25 03:13:37;;;;;;;4.38;3.35;;;;;;;21.26;46.53;99641.75;5052775;28;20031;-76
2021/07/25 03:16:07;;;;;;;7.20;3.88;;;;;;;21.21;46.94;99647.00;5052594;28;20104;-76
2021/07/25 03:18:33;;;;;;;7.70;3.90;;;;;;;20.10;46.85;99467.00;5052380;28;20047;-75
2021/07/25 03:20:59;;;;;;;6.00;4.38;;;;;;;21.17;46.64;99632.44;5052277;28;20549;-74
2021/07/25 03:23:24;;;;;;;7.90;4.07;;;;;;;21.08;46.79;99612.44;5052387;28;20021;-80
2021/07/25 03:25:50;;;;;;;8.20;3.88;;;;;;;20.96;46.86;99596.41;5051075;28;20042;-81
2021/07/25 03:28:15;;;;;;;5.97;4.03;;;;;;;21.05;46.84;99611.06;5052170;28;20079;-81
2021/07/25 03:30:41;;;;;;;7.47;4.43;;;;;;;21.16;46.92;99625.44;5052341;28;20024;-81
2021/07/25 03:33:09;;;;;;;5.40;4.18;;;;;;;21.15;46.81;99618.44;5052215;28;20025;-81
2021/07/25 03:35:35;;;;;;;7.10;4.25;;;;;;;21.23;46.65;99626.13;5052135;28;20031;-81
2021/07/25 03:38:00;;;;;;;5.57;4.05;;;;;;;21.24;46.81;99622.38;5052408;28;20016;-81
2021/07/25 03:40:28;;;;;;;9.02;4.30;;;;;;;21.13;46.86;99620.56;5052203;28;20079;-80
2021/07/25 03:42:54;;;;;;;4.10;3.70;;;;;;;21.29;46.83;99624.31;5052094;28;20028;-81
2021/07/25 03:45:19;;;;;;;5.78;4.53;;;;;;;21.25;46.66;99610.56;5052260;28;20020;-80
2021/07/25 03:47:45;;;;;;;6.40;3.78;;;;;;;20.64;46.69;99507.59;5051484;28;20029;-81
2021/07/25 03:50:10;;;;;;;6.63;3.88;;;;;;;21.43;46.49;99631.78;5052272;28;20409;-80
2021/07/25 03:52:36;;;;;;;8.02;3.88;;;;;;;21.45;46.21;99623.50;5051957;28;20025;-81
2021/07/25 03:55:05;;;;;;;5.68;3.67;;;;;;;20.69;46.41;99498.81;5051968;28;20027;-81
2021/07/25 03:57:33;;;;;;;6.50;4.15;;;;;;;21.55;46.20;99632.53;5051665;28;20026;-81
2021/07/25 03:59:58;;;;;;;7.97;4.15;;;;;;;21.61;46.23;99630.72;5051812;28;20617;-81
2021/07/25 04:02:23;;;;;;;7.50;4.40;;;;;;;21.32;46.26;99587.06;5051843;28;20108;-81
2021/07/25 04:04:49;;;;;;;5.70;4.18;;;;;;;21.48;46.13;99606.88;5051848;28;20017;-80
2021/07/25 04:07:14;;;;;;;13.57;4.32;;;;;;;21.43;46.16;99599.56;5051865;28;20413;-81
2021/07/25 04:09:40;;;;;;;9.85;4.47;;;;;;;21.73;46.13;99636.81;5051752;28;20077;-80
2021/07/25 04:12:05;;;;;;;6.40;4.18;;;;;;;21.78;46.02;99644.13;5051666;28;20398;-80
2021/07/25 04:14:31;;;;;;;7.03;4.55;;;;;;;21.61;46.06;99616.47;5051740;28;20017;-81
2021/07/25 04:16:56;;;;;;;10.20;4.45;;;;;;;21.61;46.02;99614.59;5051558;28;20017;-81
2021/07/25 04:19:22;;;;;;;7.28;3.72;;;;;;;21.81;46.08;99640.94;5051807;28;20481;-81
2021/07/25 04:21:47;;;;;;;9.65;4.30;;;;;;;21.58;45.84;99592.81;5050140;28;20025;-80
2021/07/25 04:24:12;;;;;;;7.40;4.18;;;;;;;21.83;46.25;99645.00;5051250;28;20025;-77
2021/07/25 04:26:38;;;;;;;9.73;4.47;;;;;;;21.76;46.32;99651.63;5051442;28;20485;-75
2021/07/25 04:29:04;;;;;;;5.22;4.03;;;;;;;21.81;46.24;99649.81;5051250;28;20029;-76
2021/07/25 04:31:30;;;;;;;7.88;4.90;;;;;;;21.80;46.29;99637.44;5051406;28;20025;-76
2021/07/25 04:33:55;;;;;;;5.95;4.22;;;;;;;21.61;46.26;99598.50;5049976;28;20120;-75
2021/07/25 04:36:25;;;;;;;5.47;4.55;;;;;;;21.83;46.23;99633.44;5051211;28;20094;-76
2021/07/25 04:38:52;;;;;;;10.25;4.97;;;;;;;21.81;46.46;99638.25;5051025;28;20043;-75
2021/07/25 04:41:21;;;;;;;6.60;4.75;;;;;;;21.87;46.75;99645.31;5051022;28;20446;-77
2021/07/25 04:43:47;;;;;;;7.80;4.82;;;;;;;21.84;46.96;99673.50;5051442;28;20024;-77
2021/07/25 04:46:15;;;;;;;13.68;4.95;;;;;;;21.88;47.30;99652.31;5051286;28;20075;-77
2021/07/25 04:49:05;;;;;;;6.93;5.00;;;;;;;21.96;47.64;99659.94;5050903;28;20044;-76
2021/07/25 04:51:31;;;;;;;7.50;4.90;;;;;;;21.96;47.45;99659.94;5051022;28;20029;-75
2021/07/25 04:54:06;;;;;;;7.10;5.50;;;;;;;21.95;47.58;99647.56;5050958;28;20055;-76
2021/07/25 04:56:42;;;;;;;6.57;5.22;;;;;;;21.95;48.21;99642.19;5049637;28;20032;-76
2021/07/25 04:59:15;;;;;;;7.05;5.30;;;;;;;22.09;47.79;99670.38;5052653;28;20502;-76
2021/07/25 05:01:45;;;;;;;7.78;6.10;;;;;;;21.88;48.06;99633.50;5055209;28;20027;-75
2021/07/25 05:04:12;;;;;;;8.60;6.10;;;;;;;21.84;47.95;99616.25;5055346;28;20094;-76
2021/07/25 05:06:38;;;;;;;8.02;5.82;;;;;;;22.10;47.82;99669.31;5055379;28;20065;-75
2021/07/25 05:09:04;;;;;;;7.10;5.50;;;;;;;22.36;47.96;99688.47;5054807;28;20056;-76
2021/07/25 05:11:41;;;;;;;8.05;6.30;;;;;;;22.23;47.69;99646.59;5054990;28;20103;-75
2021/07/25 05:14:15;;;;;;;7.95;5.78;;;;;;;22.61;47.52;99687.94;5055058;28;20486;-76
2021/07/25 05:16:45;;;;;;;9.73;6.07;;;;;;;22.71;47.20;99688.84;5055074;28;20021;-76
2021/07/25 05:19:16;;;;;;;6.50;5.90;;;;;;;22.82;47.26;99693.28;5054949;28;20031;-76
2021/07/25 05:21:45;;;;;;;8.00;6.35;;;;;;;22.88;46.97;99683.38;5054945;28;20077;-77
2021/07/25 05:24:12;;;;;;;8.55;5.13;;;;;;;22.96;46.93;99688.31;5054759;28;20028;-76
2021/07/25 05:26:37;;;;;;;9.98;6.00;;;;;;;22.99;46.84;99689.69;5054646;28;20021;-76
2021/07/25 05:29:04;;;;;;;7.75;5.85;;;;;;;22.45;46.64;99593.59;5054678;28;20576;-76
2021/07/25 05:31:31;;;;;;;9.45;4.97;;;;;;;23.10;46.63;99677.94;5054892;28;20021;-74
2021/07/25 05:33:57;;;;;;;7.55;5.00;;;;;;;23.33;46.33;99701.03;5053244;28;20021;-77
2021/07/25 05:36:22;;;;;;;6.68;5.00;;;;;;;23.41;46.25;99695.97;5054486;28;20031;-77
2021/07/25 05:38:48;;;;;;;8.43;5.10;;;;;;;23.46;46.11;99693.31;5054478;28;20021;-77
2021/07/25 05:41:13;;;;;;;9.82;5.60;;;;;;;23.42;46.14;99689.53;5054318;28;20100;-75
2021/07/25 05:43:38;;;;;;;9.75;5.45;;;;;;;23.25;45.75;99655.72;5054474;28;20025;-74
2021/07/25 05:46:04;;;;;;;7.80;4.45;;;;;;;23.53;45.82;99687.72;5054396;28;20519;-74
2021/07/25 05:48:29;;;;;;;11.63;5.32;;;;;;;23.04;45.70;99614.34;5054145;28;20025;-74
2021/07/25 05:50:55;;;;;;;6.05;4.43;;;;;;;23.52;45.55;99679.88;5054518;28;20025;-73
2021/07/25 05:53:20;;;;;;;5.10;4.57;;;;;;;23.64;45.54;99688.63;5054438;28;20021;-75
2021/07/25 05:55:46;;;;;;;8.20;5.05;;;;;;;23.65;45.48;99692.94;5054303;28;20021;-75
2021/07/25 05:58:11;;;;;;;7.20;4.40;;;;;;;23.74;45.48;99694.06;5053936;28;20049;-75
2021/07/25 06:00:36;;;;;;;6.53;5.07;;;;;;;23.72;45.15;99672.75;5054241;28;20512;-75
2021/07/25 06:03:03;;;;;;;6.93;5.13;;;;;;;23.52;45.05;99645.66;5054212;28;20017;-76
2021/07/25 06:05:37;;;;;;;7.47;5.30;;;;;;;23.38;44.54;99626.44;5054015;28;20086;-75
2021/07/25 06:08:07;;;;;;;7.25;4.90;;;;;;;23.96;44.45;99700.16;5053803;28;20036;-76
2021/07/25 06:10:34;;;;;;;7.38;6.10;;;;;;;23.92;43.95;99690.97;5053115;28;20524;-75
2021/07/25 06:13:03;;;;;;;7.20;5.72;;;;;;;24.03;43.90;99708.81;5053833;28;20482;-76
2021/07/25 06:15:30;;;;;;;11.48;6.65;;;;;;;23.65;43.64;99636.31;5053704;28;20097;-74
2021/07/25 06:17:56;;;;;;;7.88;6.25;;;;;;;24.13;43.48;99715.34;5053803;28;20029;-74
2021/07/25 06:20:22;;;;;;;7.53;6.40;;;;;;;23.68;43.42;99631.22;5053911;28;20021;-74
2021/07/25 06:22:50;;;;;;;7.43;6.28;;;;;;;24.19;43.10;99700.81;5053880;28;20044;-75
2021/07/25 06:25:20;;;;;;;8.75;5.72;;;;;;;24.16;42.87;99679.75;5053552;28;20528;-76
2021/07/25 06:27:47;;;;;;;7.28;5.72;;;;;;;24.38;42.90;99713.59;5053487;28;20021;-73
2021/07/25 06:30:13;;;;;;;7.32;5.57;;;;;;;23.85;42.55;99608.69;5053666;28;20029;-75
2021/07/25 06:33:06;;;;;;;6.65;5.95;;;;;;;24.63;42.54;99712.06;5053791;28;20021;-75
2021/07/25 06:35:37;;;;;;;8.70;6.18;;;;;;;24.62;42.50;99703.16;5053355;28;20032;-76
2021/07/25 06:38:14;;;;;;;8.95;6.47;;;;;;;24.54;42.49;99679.38;5053509;28;20029;-75
2021/07/25 06:40:51;;;;;;;6.85;5.53;;;;;;;24.87;42.25;99717.81;5053349;28;20512;-74
2021/07/25 06:43:18;;;;;;;7.50;5.75;;;;;;;24.92;42.32;99718.63;5053158;28;20524;-75
2021/07/25 06:45:44;;;;;;;6.85;5.57;;;;;;;24.68;42.20;99668.88;5053242;28;20029;-75
2021/07/25 06:48:29;;;;;;;9.77;6.25;;;;;;;24.98;42.21;99712.19;5053006;28;20028;-75
2021/07/25 06:50:57;;;;;;;7.78;5.72;;;;;;;24.79;42.11;99673.22;5052179;28;20108;-76
2021/07/25 06:53:25;;;;;;;8.27;6.00;;;;;;;25.09;41.57;99704.88;5053042;28;20021;-77
2021/07/25 06:55:52;;;;;;;10.30;6.68;;;;;;;25.07;42.02;99715.16;5052757;28;20028;-73
2021/07/25 06:58:17;;;;;;;6.00;5.40;;;;;;;24.85;41.70;99665.94;5052607;28;20021;-75
2021/07/25 07:00:43;;;;;;;10.00;5.32;;;;;;;25.19;41.22;99710.31;5052723;28;20039;-75
2021/07/25 07:03:08;;;;;;;8.38;5.45;;;;;;;25.29;41.12;99709.53;5052907;28;20025;-75
2021/07/25 07:05:34;;;;;;;5.90;5.30;;;;;;;25.39;40.96;99706.81;5052999;28;20021;-75
2021/07/25 07:08:01;;;;;;;10.55;6.45;;;;;;;25.49;40.82;99708.69;5052755;28;20020;-75
2021/07/25 07:10:30;;;;;;;8.88;6.53;;;;;;;25.10;40.86;99663.28;5052714;28;20090;-73
2021/07/25 07:12:58;;;;;;;8.40;6.53;;;;;;;25.53;40.86;99704.38;5052533;28;20024;-77
2021/07/25 07:15:28;;;;;;;6.70;5.93;;;;;;;25.59;40.58;99717.59;5052592;28;20108;-73
2021/07/25 07:17:55;;;;;;;6.50;4.68;;;;;;;25.63;40.56;99707.88;5052615;28;20013;-75
2021/07/25 07:20:21;;;;;;;6.72;5.15;;;;;;;25.51;40.27;99666.78;5052525;28;20025;-75
2021/07/25 07:23:01;;;;;;;7.97;5.22;;;;;;;25.79;39.73;99705.97;5051355;28;20028;-77
2021/07/25 07:25:33;;;;;;;7.47;5.13;;;;;;;25.92;39.84;99715.41;5052327;28;20021;-73
2021/07/25 07:27:58;;;;;;;8.20;6.03;;;;;;;25.84;39.56;99687.03;5052386;28;20478;-73
2021/07/25 07:30:24;;;;;;;7.78;5.22;;;;;;;25.89;39.51;99684.31;5052560;28;20017;-75
2021/07/25 07:32:49;;;;;;;5.95;5.10;;;;;;;26.10;39.69;99714.03;5052245;28;20025;-76
2021/07/25 07:35:15;;;;;;;5.13;4.63;;;;;;;26.10;39.25;99706.72;5052063;28;20493;-75
2021/07/25 07:37:40;;;;;;;6.20;5.03;;;;;;;25.89;39.35;99673.47;5052103;28;20093;-76
2021/07/25 07:40:06;;;;;;;6.80;3.90;;;;;;;26.14;38.85;99705.09;5052126;28;20448;-76
2021/07/25 07:42:32;;;;;;;6.10;3.80;;;;;;;26.37;38.70;99709.06;5052039;28;20036;-76
2021/07/25 07:45:07;;;;;;;7.97;4.65;;;;;;;26.48;38.51;99709.84;5068715;28;20385;-74
2021/07/25 07:47:32;;;;;;;5.22;3.65;;;;;;;26.57;38.17;99706.25;5068493;28;20111;-76
2021/07/25 07:49:58;;;;;;;5.38;3.53;;;;;;;26.35;37.81;99665.22;5067087;28;20119;-77
2021/07/25 07:52:23;;;;;;;6.40;4.10;;;;;;;26.70;37.74;99712.16;5068415;28;20016;-74
2021/07/25 07:54:48;;;;;;;7.70;4.60;;;;;;;26.79;37.63;99719.44;5068540;28;20017;-73
2021/07/25 07:57:14;;;;;;;6.45;3.97;;;;;;;26.85;37.30;99712.09;5067197;28;20016;-76
2021/07/25 07:59:39;;;;;;;5.43;3.85;;;;;;;26.94;36.92;99715.00;5068605;28;20027;-76
2021/07/25 08:02:05;;;;;;;8.10;4.55;;;;;;;26.75;36.86;99687.75;5068489;28;20020;-73
2021/07/25 08:04:30;;;;;;;6.45;3.83;;;;;;;27.10;36.62;99717.34;5068135;28;20020;-75
2021/07/25 08:06:56;;;;;;;5.03;3.50;;;;;;;26.98;36.22;99694.41;5066906;28;20410;-77
2021/07/25 08:09:21;;;;;;;5.35;3.75;;;;;;;27.11;36.23;99696.47;5066679;28;20019;-74
2021/07/25 08:11:46;;;;;;;6.70;4.03;;;;;;;27.17;35.78;99695.34;5067956;28;20024;-76
2021/07/25 08:14:13;;;;;;;6.28;3.65;;;;;;;27.50;35.38;99712.72;5066816;28;20017;-76
2021/07/25 08:16:39;;;;;;;4.82;3.38;;;;;;;27.26;34.81;99660.31;5066810;28;20024;-75
2021/07/25 08:19:05;;;;;;;6.00;3.88;;;;;;;27.62;34.93;99709.66;5068164;28;20074;-76
2021/07/25 08:21:30;;;;;;;4.70;3.30;;;;;;;27.28;34.50;99660.81;5068199;28;20016;-75
2021/07/25 08:23:56;;;;;;;8.25;3.40;;;;;;;27.52;33.64;99684.22;5067720;28;20033;-76
2021/07/25 08:26:21;;;;;;;5.82;3.63;;;;;;;27.40;33.81;99650.41;5067928;28;20032;-74
2021/07/25 08:28:46;;;;;;;4.57;3.28;;;;;;;27.74;33.86;99685.66;5066581;28;20028;-76
2021/07/25 08:31:12;;;;;;;6.30;3.63;;;;;;;27.67;33.62;99666.19;5066595;28;20021;-75
2021/07/25 08:33:37;;;;;;;10.25;3.55;;;;;;;28.01;33.39;99698.66;5067673;28;20504;-75
2021/07/25 08:36:03;;;;;;;6.78;3.70;;;;;;;28.09;33.14;99703.44;5067514;28;20436;-73
2021/07/25 08:38:29;;;;;;;4.68;3.33;;;;;;;28.24;32.91;99721.47;5067528;28;20024;-76
2021/07/25 08:41:27;;;;;;;6.50;3.35;;;;;;;28.24;32.91;99702.47;5067755;28;20031;-76
2021/07/25 08:44:11;;;;;;;6.25;3.80;;;;;;;28.21;32.22;99690.25;5067300;28;20041;-73
2021/07/25 08:46:37;;;;;;;6.15;4.00;;;;;;;28.09;32.41;99660.81;5066138;28;20028;-73
2021/07/25 08:49:04;;;;;;;5.75;3.85;;;;;;;28.56;32.18;99716.22;5067363;28;20039;-76
2021/07/25 08:51:41;;;;;;;7.75;5.63;;;;;;;28.69;31.39;99709.22;5067409;28;20025;-75
2021/07/25 08:54:10;;;;;;;5.97;4.35;;;;;;;28.55;31.85;99686.63;5067342;28;20029;-76
2021/07/25 08:56:36;;;;;;;6.18;5.28;;;;;;;28.73;31.85;99704.81;5053651;28;20017;-76
2021/07/25 08:59:06;;;;;;;9.38;5.60;;;;;;;28.84;31.33;99705.53;5053980;28;20090;-75
2021/07/25 09:01:35;;;;;;;10.93;5.27;;;;;;;28.97;31.03;99699.34;5052539;28;20524;-75
2021/07/25 09:04:02;;;;;;;7.70;4.45;;;;;;;29.05;30.64;99704.94;5053928;28;20024;-74
2021/07/25 09:06:38;;;;;;;5.95;3.88;;;;;;;29.20;30.26;99703.88;5054040;28;20025;-73
2021/07/25 09:09:04;;;;;;;6.63;4.22;;;;;;;29.32;29.76;99706.13;5054031;28;20045;-73
2021/07/25 09:11:29;;;;;;;7.68;4.15;;;;;;;29.45;29.61;99704.59;5053670;28;20464;-76
2021/07/25 09:13:58;;;;;;;8.40;6.20;;;;;;;29.31;29.23;99663.72;5053575;28;20455;-75
2021/07/25 09:16:30;;;;;;;6.90;5.70;;;;;;;29.67;29.08;99700.09;5053466;28;20031;-75
2021/07/25 09:18:56;;;;;;;7.80;4.60;;;;;;;29.79;28.64;99696.09;5053523;28;20536;-74
2021/07/25 09:21:39;;;;;;;6.75;5.00;;;;;;;29.93;28.38;99684.09;5052360;28;20529;-74
2021/07/25 09:24:17;;;;;;;8.13;5.13;;;;;;;30.10;28.58;99688.97;5053616;28;20130;-80
2021/07/25 09:27:09;;;;;;;9.02;4.60;;;;;;;30.11;28.13;99651.66;5053947;28;20414;-81
2021/07/25 09:29:36;;;;;;;6.28;5.57;;;;;;;30.41;28.36;99678.25;5053340;28;20061;-81
2021/07/25 09:32:16;;;;;;;8.80;5.72;;;;;;;30.67;28.33;99684.78;5053822;28;20029;-80
2021/07/25 09:34:43;;;;;;;7.95;3.42;;;;;;;30.60;27.78;99645.44;5053385;28;20472;-80
2021/07/25 09:37:15;;;;;;;6.30;2.78;;;;;;;30.80;27.37;99655.88;5053339;28;20025;-80
2021/07/25 09:39:50;;;;;;;6.35;4.20;;;;;;;30.60;26.76;99580.84;5053278;28;20020;-81
2021/07/25 09:42:26;;;;;;;6.65;2.65;;;;;;;31.25;25.19;99645.00;5052081;28;20565;-79
2021/07/25 09:44:53;;;;;;;5.25;3.03;;;;;;;31.18;25.15;99612.69;5053007;28;20041;-80
2021/07/25 09:47:34;;;;;;;8.23;3.88;;;;;;;31.57;23.95;99682.09;5051558;28;20425;-80
2021/07/25 09:50:02;;;;;;;4.60;3.40;;;;;;;31.51;24.00;99670.50;5053380;28;20021;-79
2021/07/25 09:52:32;;;;;;;6.18;3.45;;;;;;;31.27;23.39;99619.00;5051870;28;20044;-79
2021/07/25 09:54:59;;;;;;;9.25;4.53;;;;;;;31.55;23.60;99668.75;5052137;28;20502;-79
2021/07/25 09:57:26;;;;;;;8.88;3.88;;;;;;;31.76;23.27;99677.22;5053107;28;20037;-78
2021/07/25 09:59:53;;;;;;;7.80;4.07;;;;;;;31.31;23.29;99602.00;5052968;28;20036;-80
2021/07/25 10:02:34;;;;;;;8.07;5.18;;;;;;;31.30;23.58;99587.56;5051778;28;20060;-80
2021/07/25 10:05:09;;;;;;;6.20;3.67;;;;;;;32.02;22.63;99680.06;5052872;28;20039;-78
2021/07/25 10:07:35;;;;;;;5.22;3.60;;;;;;;32.02;22.90;99677.34;5051795;28;20533;-80
2021/07/25 10:10:01;;;;;;;6.68;3.42;;;;;;;31.78;23.19;99616.84;5052712;28;20100;-81
2021/07/25 10:12:34;;;;;;;5.15;3.47;;;;;;;32.32;22.76;99667.47;5052720;28;20108;-80
2021/07/25 10:15:03;;;;;;;5.60;3.45;;;;;;;32.26;22.98;99635.94;5052882;28;20025;-81
2021/07/25 10:17:34;;;;;;;4.90;3.80;;;;;;;32.41;22.52;99648.34;5052460;28;20051;-78
2021/07/25 10:20:02;;;;;;;5.82;3.47;;;;;;;32.10;22.33;99578.22;5052351;28;20025;-79
2021/07/25 10:22:32;;;;;;;4.53;3.95;;;;;;;32.81;21.30;99663.53;5052260;28;20031;-81
2021/07/25 10:24:59;;;;;;;7.25;3.45;;;;;;;32.77;21.62;99659.00;5052380;28;20107;-74
2021/07/25 10:27:25;;;;;;;3.90;3.20;;;;;;;32.53;21.54;99615.72;5052300;28;20025;-74
2021/07/25 10:29:52;;;;;;;5.18;3.15;;;;;;;32.67;21.61;99610.06;5052532;28;20155;-74
2021/07/25 10:32:19;;;;;;;5.95;3.70;;;;;;;33.06;21.23;99639.19;5052292;28;20025;-75
2021/07/25 10:34:46;;;;;;;6.43;3.55;;;;;;;33.32;20.96;99659.13;5052383;28;20029;-75
2021/07/25 10:37:12;;;;;;;4.90;3.05;;;;;;;33.10;21.06;99608.13;5052045;28;20024;-74
2021/07/25 10:39:43;;;;;;;6.88;2.75;;;;;;;33.38;20.88;99657.81;5052094;28;20040;-73
2021/07/25 10:42:13;;;;;;;6.55;3.85;;;;;;;33.59;20.62;99655.19;5051952;28;20032;-74
2021/07/25 10:44:42;;;;;;;5.53;4.25;;;;;;;33.76;20.64;99646.91;5051786;28;20044;-73
2021/07/25 10:47:22;;;;;;;7.32;3.08;;;;;;;33.90;20.14;99656.84;5051918;28;20109;-75
2021/07/25 10:50:06;;;;;;;6.40;3.22;;;;;;;34.09;19.61;99647.06;5051854;28;20107;-74
2021/07/25 10:52:52;;;;;;;8.00;2.53;;;;;;;34.14;20.00;99639.78;5051835;28;20112;-76
2021/07/25 10:55:38;;;;;;;2.80;2.53;;;;;;;34.19;19.98;99645.91;5052117;28;20060;-73
2021/07/25 10:58:06;;;;;;;4.18;2.40;;;;;;;34.18;20.13;99629.78;5051574;28;20136;-76
2021/07/25 11:00:40;;;;;;;6.15;2.58;;;;;;;34.26;20.18;99637.16;5051809;28;20021;-73
2021/07/25 11:03:06;;;;;;;3.55;2.58;;;;;;;34.52;19.59;99637.00;5051749;28;20111;-74
2021/07/25 11:05:32;;;;;;;4.07;2.70;;;;;;;34.70;19.47;99627.47;5051995;28;20028;-74
2021/07/25 11:07:59;;;;;;;4.40;2.35;;;;;;;34.40;18.92;99597.41;5051927;28;20025;-74
2021/07/25 11:10:35;;;;;;;3.00;2.42;;;;;;;34.87;18.38;99629.28;5051442;28;20105;-75
2021/07/25 11:13:01;;;;;;;2.80;2.10;;;;;;;35.03;18.52;99630.28;5051622;28;20025;-75
2021/07/25 11:15:38;;;;;;;3.63;2.50;;;;;;;35.14;18.45;99634.19;5051684;28;20091;-75
2021/07/25 11:18:08;;;;;;;4.97;2.22;;;;;;;35.16;18.60;99628.38;5051227;28;20013;-76
2021/07/25 11:20:54;;;;;;;6.07;2.13;;;;;;;35.09;19.06;99631.66;5051389;28;20104;-73
2021/07/25 11:23:19;;;;;;;4.45;2.70;;;;;;;35.12;19.16;99625.50;5050228;28;20072;-78
2021/07/25 11:25:46;;;;;;;6.63;3.50;;;;;;;35.08;19.36;99613.59;5050209;28;20443;-80
2021/07/25 11:28:42;;;;;;;4.25;2.72;;;;;;;35.43;19.02;99621.47;5051444;28;20028;-80
2021/07/25 11:31:11;;;;;;;4.43;2.30;;;;;;;35.56;18.92;99618.38;5051530;28;20028;-80
2021/07/25 11:33:40;;;;;;;8.88;3.28;;;;;;;35.47;19.00;99603.97;5051502;28;20079;-78
2021/07/25 11:36:10;;;;;;;4.30;2.72;;;;;;;35.65;18.91;99619.06;5051440;28;20013;-79
2021/07/25 11:38:37;;;;;;;3.70;2.60;;;;;;;35.26;18.61;99556.56;5051418;28;20028;-81